Time;durP1;ratioP1;P1;durP2;ratioP2;P2;SDS_P1;SDS_P2;PMS_P1;PMS_P2;Temp;Humidity;BMP_temperature;BMP_pressure;BME280_temperature;BME280_humidity;BME280_pressure;Samples;Min_cycle;Max_cycle;Signal;HPM_P1;HPM_P2
2023/12/26 00:03:34;;;;;;;3.80;0.90;;;;;;;10.84;100.00;99325.23;178392;1260;58755;-88
2023/12/26 00:07:37;;;;;;;1.60;0.90;;;;;;;10.83;100.00;99318.02;177739;1262;45992;-85
2023/12/26 00:11:45;;;;;;;2.20;1.00;;;;;;;10.84;100.00;99313.54;177813;1262;46130;-86
2023/12/26 00:15:50;;;;;;;0.80;0.60;;;;;;;10.85;100.00;99296.71;177680;1257;44710;-86
2023/12/26 00:19:53;;;;;;;1.40;1.10;;;;;;;10.84;100.00;99286.00;177604;1256;45989;-87
2023/12/26 00:23:57;;;;;;;1.10;0.70;;;;;;;10.82;100.00;99277.14;177213;1257;60216;-86
2023/12/26 00:28:01;;;;;;;0.90;0.70;;;;;;;10.86;100.00;99285.98;177569;1256;46112;-86
2023/12/26 00:32:04;;;;;;;0.70;0.50;;;;;;;10.91;100.00;99293.20;178023;1257;46007;-85
2023/12/26 00:36:18;;;;;;;0.60;0.50;;;;;;;10.91;100.00;99287.14;177995;1262;46152;-83
2023/12/26 00:40:21;;;;;;;1.00;0.60;;;;;;;10.98;100.00;99286.41;177351;1256;46102;-85
2023/12/26 00:44:24;;;;;;;1.00;0.80;;;;;;;11.02;100.00;99275.18;177453;1258;58219;-85
2023/12/26 00:48:28;;;;;;;0.80;0.70;;;;;;;11.07;100.00;99270.42;177418;1257;46172;-87
2023/12/26 00:52:32;;;;;;;1.00;0.80;;;;;;;11.09;100.00;99273.13;178044;1257;46114;-85
2023/12/26 00:56:35;;;;;;;1.60;1.20;;;;;;;11.05;100.00;99273.31;177573;1261;46117;-87
2023/12/26 01:00:39;;;;;;;3.90;1.30;;;;;;;11.07;100.00;99266.04;177587;1256;46011;-87
2023/12/26 01:04:42;;;;;;;1.20;1.10;;;;;;;11.08;100.00;99258.45;177697;1257;59716;-88
2023/12/26 01:08:46;;;;;;;1.30;1.00;;;;;;;11.08;100.00;99252.03;178159;1256;46391;-87
2023/12/26 01:12:49;;;;;;;2.10;0.80;;;;;;;11.09;100.00;99244.56;178222;1257;45079;-86
2023/12/26 01:16:52;;;;;;;1.60;1.50;;;;;;;11.14;100.00;99247.89;178204;1256;45974;-90
2023/12/26 01:20:56;;;;;;;1.60;1.50;;;;;;;11.20;100.00;99254.98;177516;1260;46025;-88
2023/12/26 01:24:59;;;;;;;6.50;2.50;;;;;;;11.19;100.00;99254.52;177680;1256;59599;-88
2023/12/26 01:29:04;;;;;;;3.30;3.00;;;;;;;11.15;100.00;99244.13;177437;1256;46111;-86
2023/12/26 01:33:08;;;;;;;3.00;2.20;;;;;;;11.11;100.00;99240.39;177237;1260;46447;-86
2023/12/26 01:37:12;;;;;;;1.70;1.60;;;;;;;11.08;100.00;99235.06;177617;1256;46054;-85
2023/12/26 01:41:15;;;;;;;2.90;1.50;;;;;;;11.05;100.00;99232.55;177663;1256;46004;-87
2023/12/26 01:45:19;;;;;;;1.60;0.90;;;;;;;10.99;100.00;99223.84;177871;1260;59542;-85
2023/12/26 01:49:23;;;;;;;0.60;0.60;;;;;;;10.97;100.00;99216.13;177843;1262;46004;-85
2023/12/26 01:53:27;;;;;;;1.80;0.90;;;;;;;10.94;100.00;99213.95;178076;1256;46067;-84
2023/12/26 01:57:32;;;;;;;0.70;0.40;;;;;;;10.94;100.00;99207.65;177994;1260;45920;-85
2023/12/26 02:01:36;;;;;;;0.50;0.50;;;;;;;10.95;100.00;99197.34;178171;1261;45926;-87
2023/12/26 02:10:16;;;;;;;1.10;0.60;;;;;;;11.04;100.00;99177.06;157886;1257;89887;-66
2023/12/26 02:14:19;;;;;;;1.20;1.10;;;;;;;11.03;100.00;99178.29;180448;1257;45042;-66
2023/12/26 02:18:31;;;;;;;1.00;0.40;;;;;;;11.06;100.00;99175.11;180441;1256;43695;-66
2023/12/26 02:22:36;;;;;;;1.40;0.80;;;;;;;11.10;100.00;99171.28;180520;1257;43586;-66
2023/12/26 02:26:42;;;;;;;1.90;1.10;;;;;;;11.14;100.00;99171.60;180531;1257;58572;-66
2023/12/26 02:30:53;;;;;;;1.90;0.60;;;;;;;11.13;100.00;99171.00;180253;1257;44737;-66
2023/12/26 02:35:00;;;;;;;1.10;0.50;;;;;;;11.09;100.00;99167.88;180379;1257;43623;-66
2023/12/26 02:39:04;;;;;;;2.70;1.00;;;;;;;11.06;100.00;99161.60;180497;1256;44544;-66
2023/12/26 02:43:08;;;;;;;2.70;1.00;;;;;;;11.06;100.00;99148.99;180307;1257;43607;-66
2023/12/26 02:47:14;;;;;;;1.90;0.70;;;;;;;11.03;100.00;99140.30;180409;1257;57957;-66
2023/12/26 02:51:19;;;;;;;1.00;0.70;;;;;;;11.03;100.00;99132.65;180426;1256;46000;-66
2023/12/26 02:55:23;;;;;;;0.80;0.80;;;;;;;11.01;100.00;99126.41;180517;1256;43754;-66
2023/12/26 02:59:26;;;;;;;0.80;0.80;;;;;;;11.00;100.00;99117.17;180235;1257;45894;-66
2023/12/26 03:03:30;;;;;;;1.10;0.40;;;;;;;11.03;100.00;99111.92;180294;1257;46035;-66
2023/12/26 03:08:00;;;;;;;1.00;0.50;;;;;;;11.04;100.00;99110.34;180341;1256;60139;-67
2023/12/26 03:12:04;;;;;;;0.60;0.60;;;;;;;11.09;100.00;99092.96;180641;1257;44183;-66
2023/12/26 03:16:08;;;;;;;0.30;0.30;;;;;;;11.15;100.00;99085.70;180697;1257;43802;-66
2023/12/26 03:20:12;;;;;;;1.00;0.60;;;;;;;11.14;100.00;99082.77;180344;1256;45007;-67
2023/12/26 03:24:16;;;;;;;1.70;0.80;;;;;;;11.14;100.00;99086.87;180164;1257;407275;-67
2023/12/26 03:28:19;;;;;;;1.30;0.70;;;;;;;11.14;100.00;99081.30;180230;1258;58898;-67
2023/12/26 03:32:23;;;;;;;0.80;0.30;;;;;;;11.14;100.00;99076.65;180333;1257;46131;-66
2023/12/26 03:36:26;;;;;;;1.30;0.40;;;;;;;11.15;100.00;99073.96;180289;1256;45972;-66
2023/12/26 03:40:30;;;;;;;0.10;0.10;;;;;;;11.12;100.00;99065.51;180242;1257;45953;-66
2023/12/26 03:44:33;;;;;;;7.00;1.10;;;;;;;11.14;100.00;99056.69;180421;1257;45915;-67
2023/12/26 03:48:37;;;;;;;0.60;0.30;;;;;;;11.16;100.00;99050.64;180241;1257;58390;-67
2023/12/26 03:52:42;;;;;;;0.80;0.20;;;;;;;11.15;100.00;99053.90;180234;1257;44472;-67
2023/12/26 03:56:47;;;;;;;0.60;0.40;;;;;;;11.13;100.00;99048.40;180311;1257;46077;-67
2023/12/26 04:00:50;;;;;;;1.00;0.30;;;;;;;11.14;100.00;99044.45;180178;1257;45914;-67
2023/12/26 04:05:02;;;;;;;0.60;0.60;;;;;;;11.17;100.00;99039.48;180198;1256;44895;-67
2023/12/26 04:09:06;;;;;;;0.20;0.10;;;;;;;11.22;100.00;99032.98;180319;1257;58421;-67
2023/12/26 04:13:12;;;;;;;0.40;0.20;;;;;;;11.26;100.00;99028.46;180450;1256;43532;-67
2023/12/26 04:17:16;;;;;;;1.10;0.30;;;;;;;11.31;100.00;99020.52;180346;1256;44541;-67
2023/12/26 04:21:20;;;;;;;0.10;0.00;;;;;;;11.33;100.00;99019.09;180213;1257;43907;-67
2023/12/26 04:30:27;;;;;;;0.20;0.10;;;;;;;11.49;100.00;99012.02;180340;1257;58493;-67
2023/12/26 04:34:31;;;;;;;2.10;0.10;;;;;;;11.52;100.00;99010.67;180130;1257;44389;-67
2023/12/26 04:38:35;;;;;;;0.20;0.10;;;;;;;11.51;100.00;99011.09;180194;1257;43569;-67
2023/12/26 04:42:38;;;;;;;0.10;0.10;;;;;;;11.55;100.00;99005.13;180425;1256;43540;-67
2023/12/26 04:46:41;;;;;;;0.00;0.00;;;;;;;11.55;100.00;98998.44;180166;1257;46064;-68
2023/12/26 04:50:48;;;;;;;0.70;0.20;;;;;;;11.63;100.00;99010.71;180230;1257;58258;-68
2023/12/26 04:54:52;;;;;;;0.10;0.10;;;;;;;11.66;100.00;99008.63;180637;1256;43756;-67
2023/12/26 04:58:55;;;;;;;0.20;0.20;;;;;;;11.68;100.00;99004.86;180600;1256;45892;-68
2023/12/26 05:02:58;;;;;;;0.10;0.10;;;;;;;11.71;100.00;99002.39;180165;1260;45907;-67
2023/12/26 05:07:04;;;;;;;0.00;0.00;;;;;;;11.75;100.00;99004.63;180258;1257;46045;-68
2023/12/26 05:11:07;;;;;;;0.10;0.10;;;;;;;11.82;100.00;99007.66;180025;1257;58653;-68
2023/12/26 05:15:11;;;;;;;0.10;0.10;;;;;;;11.88;100.00;99007.58;180080;1257;43740;-68
2023/12/26 05:19:15;;;;;;;1.10;0.40;;;;;;;11.90;100.00;99004.27;180201;1257;44968;-66
2023/12/26 05:23:19;;;;;;;0.00;0.00;;;;;;;11.99;100.00;99013.47;180193;1257;45886;-66
2023/12/26 05:27:22;;;;;;;0.00;0.00;;;;;;;12.03;100.00;99012.84;180158;1257;43536;-66
2023/12/26 05:31:26;;;;;;;0.40;0.40;;;;;;;12.13;100.00;99011.00;180134;1256;58662;-67
2023/12/26 05:35:56;;;;;;;0.00;0.00;;;;;;;12.24;100.00;99013.10;180190;1257;46034;-68
2023/12/26 05:40:00;;;;;;;0.10;0.00;;;;;;;12.36;100.00;99010.65;180358;1257;45992;-69
2023/12/26 05:44:03;;;;;;;0.00;0.00;;;;;;;12.43;100.00;99015.48;180282;1257;46016;-69
2023/12/26 05:48:07;;;;;;;0.20;0.00;;;;;;;12.48;100.00;99017.23;180346;1257;44636;-70
2023/12/26 05:52:10;;;;;;;0.20;0.00;;;;;;;12.53;100.00;99020.66;180308;1257;59224;-69
2023/12/26 05:56:13;;;;;;;0.00;0.00;;;;;;;12.55;100.00;99025.55;180451;1257;45856;-69
2023/12/26 06:00:17;;;;;;;0.00;0.00;;;;;;;12.49;100.00;99016.32;180604;1256;43538;-69
2023/12/26 06:04:21;;;;;;;0.10;0.10;;;;;;;12.48;100.00;99019.27;180540;1257;43874;-70
2023/12/26 06:08:26;;;;;;;0.30;0.00;;;;;;;12.47;100.00;99018.50;180467;1257;45903;-69
2023/12/26 06:12:31;;;;;;;1.50;0.10;;;;;;;12.41;100.00;99016.05;180355;1257;58907;-70
2023/12/26 06:16:34;;;;;;;0.30;0.10;;;;;;;12.40;100.00;99019.15;180364;1256;46345;-69
2023/12/26 06:20:37;;;;;;;0.00;0.00;;;;;;;12.37;100.00;99014.38;180509;1257;46018;-69
2023/12/26 06:25:02;;;;;;;11.70;0.50;;;;;;;12.31;100.00;99013.32;180265;1257;45948;-69
2023/12/26 06:29:05;;;;;;;0.20;0.10;;;;;;;12.24;100.00;99015.30;180448;1256;43553;-69
2023/12/26 06:33:09;;;;;;;0.00;0.00;;;;;;;12.16;100.00;99014.49;180476;1257;58661;-69
2023/12/26 06:37:14;;;;;;;0.60;0.10;;;;;;;12.14;100.00;99013.16;180404;1257;45974;-69
2023/12/26 06:41:20;;;;;;;0.90;0.10;;;;;;;12.13;100.00;99017.70;180426;1260;46085;-69
2023/12/26 06:45:23;;;;;;;0.20;0.20;;;;;;;12.09;100.00;99019.23;180334;1257;45244;-69
2023/12/26 06:49:26;;;;;;;0.00;0.00;;;;;;;12.05;100.00;99021.90;180357;1256;44304;-69
2023/12/26 06:53:35;;;;;;;0.50;0.20;;;;;;;12.05;100.00;99027.73;180319;1257;58304;-69
2023/12/26 06:57:39;;;;;;;1.30;0.10;;;;;;;12.03;100.00;99034.06;180548;1257;43553;-69
2023/12/26 07:01:46;;;;;;;0.90;0.50;;;;;;;12.05;100.00;99045.88;180460;1257;45934;-70
2023/12/26 07:06:02;;;;;;;0.20;0.20;;;;;;;12.03;100.00;99060.02;180554;1257;46027;-69
2023/12/26 07:10:06;;;;;;;0.40;0.40;;;;;;;12.05;100.00;99065.11;180425;1257;43851;-68
2023/12/26 07:14:14;;;;;;;0.40;0.10;;;;;;;12.10;100.00;99059.29;180515;1257;58417;-69
2023/12/26 07:18:17;;;;;;;0.20;0.20;;;;;;;12.20;100.00;99070.95;180495;1256;43763;-70
2023/12/26 07:22:21;;;;;;;0.30;0.30;;;;;;;12.27;100.00;99073.59;180544;1257;43925;-70
2023/12/26 07:26:24;;;;;;;0.00;0.00;;;;;;;12.32;100.00;99083.95;180480;1257;43630;-70
2023/12/26 07:30:27;;;;;;;0.80;0.30;;;;;;;12.34;100.00;99080.81;180645;1256;43594;-70
2023/12/26 07:34:31;;;;;;;0.10;0.10;;;;;;;12.42;99.96;99088.75;180808;1261;58483;-70
2023/12/26 07:38:36;;;;;;;0.50;0.40;;;;;;;12.44;98.95;99089.02;180764;1257;45897;-70
2023/12/26 07:42:42;;;;;;;0.50;0.10;;;;;;;12.48;99.47;99099.41;180576;1257;43538;-70
2023/12/26 07:46:46;;;;;;;0.60;0.60;;;;;;;12.49;98.31;99090.80;180775;1257;43807;-70
2023/12/26 07:51:17;;;;;;;0.10;0.10;;;;;;;12.49;98.08;99099.15;180665;1259;44949;-69
2023/12/26 07:55:20;;;;;;;0.30;0.10;;;;;;;12.51;96.80;99094.47;180751;1257;58390;-70
2023/12/26 07:59:24;;;;;;;0.30;0.30;;;;;;;12.50;96.75;99107.59;180638;1257;43754;-70
2023/12/26 08:03:28;;;;;;;0.10;0.10;;;;;;;12.51;95.54;99113.81;180785;1257;43675;-70
2023/12/26 08:07:59;;;;;;;0.70;0.50;;;;;;;12.56;95.53;99116.30;180896;1257;43631;-70
2023/12/26 08:12:06;;;;;;;0.20;0.10;;;;;;;12.55;94.67;99125.52;180757;1257;44735;-70
2023/12/26 08:16:09;;;;;;;0.20;0.10;;;;;;;12.60;94.90;99140.85;181031;1257;58420;-68
2023/12/26 08:20:13;;;;;;;0.50;0.40;;;;;;;12.60;93.31;99148.83;180853;1257;44902;-69
2023/12/26 08:24:28;;;;;;;0.30;0.10;;;;;;;12.62;93.79;99158.20;180741;1256;43495;-69
2023/12/26 08:28:31;;;;;;;0.10;0.10;;;;;;;12.65;94.01;99159.95;180823;1259;44614;-69
2023/12/26 08:32:35;;;;;;;0.10;0.10;;;;;;;12.65;93.54;99162.45;180651;1257;44743;-69
2023/12/26 08:36:38;;;;;;;0.20;0.10;;;;;;;12.65;93.40;99164.66;180758;1257;58389;-69
2023/12/26 08:40:49;;;;;;;0.20;0.10;;;;;;;12.67;93.54;99173.80;180636;1257;45928;-69
2023/12/26 08:44:53;;;;;;;0.20;0.10;;;;;;;12.66;92.95;99183.05;180540;1257;46091;-69
2023/12/26 08:48:58;;;;;;;1.80;0.80;;;;;;;12.67;92.31;99187.17;180487;1256;43769;-67
2023/12/26 08:53:02;;;;;;;2.40;0.50;;;;;;;12.74;93.63;99204.11;180137;1261;46089;-67
2023/12/26 08:57:05;;;;;;;1.20;0.40;;;;;;;12.70;93.14;99201.05;180186;1257;58896;-66
2023/12/26 09:01:10;;;;;;;0.20;0.20;;;;;;;12.71;92.46;99201.73;180322;1257;45044;-67
2023/12/26 09:05:14;;;;;;;0.30;0.20;;;;;;;12.74;92.85;99211.22;180215;1257;43631;-67
2023/12/26 09:09:18;;;;;;;0.00;0.00;;;;;;;12.72;93.06;99226.29;180419;1257;45883;-67
2023/12/26 09:13:21;;;;;;;0.40;0.10;;;;;;;12.72;93.12;99227.39;180408;1257;43886;-67
2023/12/26 09:17:52;;;;;;;0.60;0.40;;;;;;;12.75;93.10;99235.06;180305;1257;59344;-68
2023/12/26 09:21:56;;;;;;;0.10;0.10;;;;;;;12.76;92.73;99239.23;180483;1257;44667;-67
2023/12/26 09:26:29;;;;;;;1.10;0.50;;;;;;;12.81;92.66;99255.30;180630;1256;44050;-67
2023/12/26 09:30:32;;;;;;;0.20;0.20;;;;;;;12.85;92.52;99259.77;180574;1256;45270;-67
2023/12/26 09:34:36;;;;;;;0.30;0.00;;;;;;;12.86;92.63;99260.73;180599;1257;45883;-67
2023/12/26 09:38:42;;;;;;;0.70;0.40;;;;;;;12.88;93.16;99257.73;180595;1260;58740;-67
2023/12/26 09:42:46;;;;;;;0.50;0.10;;;;;;;12.90;93.67;99261.80;180417;1257;46092;-66
2023/12/26 09:46:51;;;;;;;0.10;0.10;;;;;;;12.89;93.29;99244.79;180447;1256;45956;-66
2023/12/26 10:10:11;;;;;;;1.00;0.30;;;;;;;12.95;94.29;99288.40;161951;1259;46174;-86
2023/12/26 10:14:29;;;;;;;0.40;0.20;;;;;;;12.97;94.45;99299.83;178264;1259;45975;-81
2023/12/26 10:18:41;;;;;;;0.60;0.50;;;;;;;12.99;94.97;99309.39;178830;1259;46102;-90
2023/12/26 10:23:24;;;;;;;1.60;0.20;;;;;;;12.96;94.04;99312.05;179729;1262;61129;-90
2023/12/26 10:28:00;;;;;;;0.50;0.20;;;;;;;12.94;94.50;99320.41;178097;1264;46083;-80
2023/12/26 10:32:04;;;;;;;0.30;0.20;;;;;;;12.95;95.24;99329.72;177481;1267;46555;-82
2023/12/26 10:36:10;;;;;;;2.30;1.10;;;;;;;12.84;95.85;99322.41;176305;1263;46117;-83
2023/12/26 10:44:45;;;;;;;0.80;0.30;;;;;;;11.45;100.00;99387.20;179953;1265;59116;-90
2023/12/26 10:48:55;;;;;;;0.80;0.40;;;;;;;10.83;100.00;99412.52;178176;1262;46101;-88
2023/12/26 10:53:00;;;;;;;1.10;0.50;;;;;;;10.49;100.00;99436.86;177413;1265;46089;-89
2023/12/26 10:57:08;;;;;;;1.00;0.40;;;;;;;10.29;100.00;99438.56;177249;1262;45986;-88
2023/12/26 11:01:13;;;;;;;1.20;0.50;;;;;;;10.14;100.00;99433.02;177157;1263;46110;-87
2023/12/26 11:05:17;;;;;;;1.10;0.50;;;;;;;10.04;100.00;99446.02;177047;1261;58308;-87
2023/12/26 11:09:22;;;;;;;2.70;0.70;;;;;;;9.95;100.00;99448.23;177343;1262;45981;-90
2023/12/26 11:13:27;;;;;;;;;;;;;;;9.97;100.00;99449.10;177289;1262;46087;-89
2023/12/26 11:17:32;;;;;;;3.50;0.60;;;;;;;10.00;100.00;99447.42;177327;1263;45920;-89
2023/12/26 11:21:37;;;;;;;2.70;0.70;;;;;;;10.09;100.00;99444.14;177806;1263;45991;-90
2023/12/26 11:25:41;;;;;;;2.20;1.30;;;;;;;10.26;100.00;99462.72;177533;1265;58243;-89
2023/12/26 11:29:45;;;;;;;1.50;0.80;;;;;;;10.28;100.00;99463.80;178557;1262;46207;-89
2023/12/26 11:34:28;;;;;;;3.40;1.10;;;;;;;10.39;100.00;99460.45;178761;1261;44750;-89
2023/12/26 11:38:32;;;;;;;1.70;0.60;;;;;;;10.48;100.00;99450.79;178999;1262;45918;-89
2023/12/26 11:42:36;;;;;;;0.90;0.50;;;;;;;10.54;100.00;99462.89;178433;1264;45998;-90
2023/12/26 11:46:41;;;;;;;0.90;0.50;;;;;;;10.57;100.00;99474.66;178570;1264;60835;-90
2023/12/26 11:50:44;;;;;;;0.70;0.50;;;;;;;10.67;100.00;99476.02;178230;1261;45954;-90
2023/12/26 11:54:48;;;;;;;0.80;0.60;;;;;;;10.61;100.00;99484.36;177927;1266;46341;-90
2023/12/26 11:58:53;;;;;;;1.70;1.20;;;;;;;10.63;100.00;99488.39;177943;1261;46024;-88
2023/12/26 12:02:58;;;;;;;5.50;0.60;;;;;;;10.75;100.00;99487.10;177759;1261;46157;-88
2023/12/26 12:07:11;;;;;;;2.30;1.40;;;;;;;10.80;100.00;99488.20;177700;1264;58328;-88
2023/12/26 12:11:15;;;;;;;1.30;0.90;;;;;;;10.84;100.00;99479.91;177966;1262;45956;-88
2023/12/26 12:15:18;;;;;;;2.10;1.00;;;;;;;10.89;100.00;99484.52;178004;1262;46423;-88
2023/12/26 12:19:23;;;;;;;1.40;0.40;;;;;;;10.88;100.00;99490.19;177826;1266;46124;-87
2023/12/26 12:23:27;;;;;;;1.70;0.40;;;;;;;10.97;100.00;99481.28;177627;1264;46110;-86
2023/12/26 12:27:31;;;;;;;1.80;1.10;;;;;;;11.05;100.00;99491.02;178225;1264;60109;-87
2023/12/26 12:31:35;;;;;;;1.60;0.70;;;;;;;11.07;100.00;99494.15;177415;1261;46350;-87
2023/12/26 12:35:47;;;;;;;2.90;1.10;;;;;;;11.13;100.00;99504.77;177296;1262;46176;-88
2023/12/26 12:39:51;;;;;;;2.50;1.10;;;;;;;11.19;100.00;99503.35;177417;1261;46128;-88
2023/12/26 12:43:55;;;;;;;1.80;1.00;;;;;;;11.17;100.00;99498.91;177417;1261;44586;-87
2023/12/26 12:47:58;;;;;;;1.30;0.60;;;;;;;11.16;100.00;99497.06;177142;1265;59027;-87
2023/12/26 12:52:31;;;;;;;3.60;0.90;;;;;;;11.14;100.00;99499.40;178654;1257;90757;-63
2023/12/26 12:56:35;;;;;;;1.80;0.70;;;;;;;11.03;100.00;99505.38;180328;1259;43710;-62
2023/12/26 13:00:43;;;;;;;1.20;0.80;;;;;;;10.97;100.00;99507.77;180259;1259;45990;-63
2023/12/26 13:04:47;;;;;;;1.60;0.60;;;;;;;10.83;100.00;99519.48;180249;1259;45980;-64
2023/12/26 13:09:16;;;;;;;2.10;1.30;;;;;;;10.83;100.00;99530.50;180263;1259;58300;-65
2023/12/26 13:13:22;;;;;;;2.00;0.90;;;;;;;10.81;100.00;99529.63;180371;1259;43827;-64
2023/12/26 13:17:28;;;;;;;2.60;0.90;;;;;;;10.80;100.00;99529.56;180331;1259;45987;-64
2023/12/26 13:21:31;;;;;;;1.20;0.90;;;;;;;10.76;100.00;99535.77;180317;1259;44550;-65
2023/12/26 13:25:38;;;;;;;1.00;0.70;;;;;;;10.73;100.00;99540.35;180480;1259;45980;-64
2023/12/26 13:29:47;;;;;;;2.00;0.90;;;;;;;10.68;100.00;99544.52;180510;1259;58954;-65
2023/12/26 13:33:51;;;;;;;1.40;1.10;;;;;;;10.74;100.00;99557.64;180366;1259;43657;-65
2023/12/26 13:37:56;;;;;;;2.60;1.30;;;;;;;10.85;100.00;99554.67;180265;1259;43816;-64
2023/12/26 13:42:02;;;;;;;1.60;0.90;;;;;;;10.98;100.00;99560.42;180393;1259;46547;-65
2023/12/26 13:46:07;;;;;;;1.80;0.90;;;;;;;11.13;100.00;99563.68;180322;1259;43774;-65
2023/12/26 13:50:11;;;;;;;0.80;0.80;;;;;;;11.23;100.00;99572.83;180377;1259;58734;-64
2023/12/26 13:54:19;;;;;;;1.80;0.90;;;;;;;11.28;100.00;99574.81;180100;1259;46031;-65
2023/12/26 13:58:23;;;;;;;4.30;1.90;;;;;;;11.28;100.00;99575.41;180431;1259;43868;-65
2023/12/26 14:02:29;;;;;;;5.70;2.30;;;;;;;11.26;100.00;99578.60;180290;1259;44598;-65
2023/12/26 14:06:34;;;;;;;7.00;2.80;;;;;;;11.26;100.00;99580.88;180245;1259;45925;-65
2023/12/26 14:10:38;;;;;;;2.20;1.40;;;;;;;11.23;100.00;99591.66;180283;1259;58338;-64
2023/12/26 14:14:42;;;;;;;3.10;2.20;;;;;;;11.18;100.00;99591.42;180257;1259;43636;-64
2023/12/26 14:18:47;;;;;;;2.40;1.50;;;;;;;11.14;100.00;99592.15;180385;1259;44941;-65
2023/12/26 14:22:51;;;;;;;5.80;1.80;;;;;;;11.11;100.00;99601.81;180191;1259;46013;-64
2023/12/26 14:26:55;;;;;;;4.50;1.90;;;;;;;11.07;100.00;99607.02;179980;1259;45032;-65
2023/12/26 14:31:04;;;;;;;3.30;1.80;;;;;;;11.02;100.00;99613.58;180415;1259;58932;-64
2023/12/26 14:35:08;;;;;;;1.60;0.70;;;;;;;10.87;100.00;99612.44;180312;1259;44669;-64
2023/12/26 14:39:12;;;;;;;1.40;1.10;;;;;;;10.68;100.00;99642.72;179891;1260;92762;-84
2023/12/26 14:43:16;;;;;;;6.40;1.00;;;;;;;10.43;100.00;99638.73;178926;1260;46114;-84
2023/12/26 14:47:19;;;;;;;4.60;1.60;;;;;;;10.27;100.00;99635.67;180596;1259;44365;-84
2023/12/26 14:51:22;;;;;;;6.60;1.40;;;;;;;10.20;100.00;99641.79;179229;1259;57900;-84
2023/12/26 14:55:27;;;;;;;5.10;2.80;;;;;;;10.16;100.00;99652.02;179276;1259;44111;-83
2023/12/26 14:59:30;;;;;;;2.00;1.60;;;;;;;10.20;100.00;99661.79;180143;1260;44090;-84
2023/12/26 15:03:34;;;;;;;3.70;1.90;;;;;;;10.09;100.00;99665.55;178562;1259;46455;-83
2023/12/26 15:07:37;;;;;;;4.60;3.00;;;;;;;10.10;100.00;99672.75;177334;1260;46091;-83
2023/12/26 15:11:40;;;;;;;2.10;1.60;;;;;;;9.99;100.00;99668.96;178017;1259;59525;-84
2023/12/26 15:15:43;;;;;;;3.00;1.50;;;;;;;10.02;100.00;99668.52;177249;1260;44151;-83
2023/12/26 15:19:46;;;;;;;3.40;2.00;;;;;;;10.00;100.00;99679.86;178446;1260;46025;-84
2023/12/26 15:23:51;;;;;;;1.70;1.20;;;;;;;9.91;100.00;99692.54;178031;1259;189840;-83
2023/12/26 15:27:54;;;;;;;4.00;2.40;;;;;;;9.77;100.00;99696.95;177585;1260;45059;-84
2023/12/26 15:31:57;;;;;;;4.00;3.20;;;;;;;9.76;100.00;99696.80;178363;1259;58254;-83
2023/12/26 15:36:00;;;;;;;12.00;1.60;;;;;;;9.58;100.00;99698.89;179132;1259;45999;-84
2023/12/26 15:40:04;;;;;;;2.50;1.80;;;;;;;9.48;100.00;99691.06;178988;1262;45935;-84
2023/12/26 15:44:08;;;;;;;3.40;1.80;;;;;;;9.46;100.00;99695.16;178863;1258;45946;-84
2023/12/26 15:48:11;;;;;;;1.70;1.40;;;;;;;9.40;100.00;99697.23;178423;1259;45996;-84
2023/12/26 15:52:15;;;;;;;11.70;2.90;;;;;;;9.40;100.00;99702.38;177613;1262;59304;-83
2023/12/26 15:56:21;;;;;;;3.70;1.60;;;;;;;9.37;100.00;99700.16;178666;1258;45991;-84
2023/12/26 16:00:24;;;;;;;4.80;1.90;;;;;;;9.39;100.00;99711.89;179725;1259;45134;-83
2023/12/26 16:04:27;;;;;;;2.90;1.30;;;;;;;9.34;100.00;99718.27;177439;1260;46110;-83
2023/12/26 16:08:31;;;;;;;6.80;2.40;;;;;;;9.22;100.00;99721.77;177182;1261;46041;-81
2023/12/26 16:12:38;;;;;;;12.70;2.20;;;;;;;9.25;99.82;99725.94;177946;1260;59242;-81
2023/12/26 16:16:42;;;;;;;2.70;1.20;;;;;;;9.26;98.40;99727.45;177279;1258;46738;-84
2023/12/26 16:20:46;;;;;;;2.80;2.20;;;;;;;9.28;97.35;99739.87;177773;1262;46287;-83
2023/12/26 16:24:49;;;;;;;3.60;1.80;;;;;;;9.32;97.01;99740.74;179101;1259;44232;-83
2023/12/26 16:28:52;;;;;;;3.50;1.70;;;;;;;9.29;95.92;99736.79;179540;1258;46002;-83
2023/12/26 16:33:00;;;;;;;3.70;2.80;;;;;;;9.24;95.75;99745.98;178889;1260;57938;-84
2023/12/26 16:37:04;;;;;;;2.90;2.00;;;;;;;9.21;95.64;99741.47;179667;1259;43828;-84
2023/12/26 16:41:10;;;;;;;5.30;2.20;;;;;;;9.18;94.69;99739.10;179513;1260;46076;-84
2023/12/26 16:45:18;;;;;;;4.20;1.80;;;;;;;9.13;94.12;99739.83;177959;1258;46130;-84
2023/12/26 16:49:21;;;;;;;2.60;1.50;;;;;;;9.16;93.41;99755.35;179958;1260;46106;-88
2023/12/26 16:53:25;;;;;;;4.70;2.20;;;;;;;9.22;93.65;99765.80;178394;1259;58227;-89
2023/12/26 16:57:30;;;;;;;3.40;1.80;;;;;;;9.20;93.73;99772.35;178598;1260;46003;-89
2023/12/26 17:01:41;;;;;;;2.80;1.10;;;;;;;9.17;93.40;99770.49;179502;1258;45927;-88
2023/12/26 17:05:45;;;;;;;2.80;1.60;;;;;;;9.20;92.24;99768.67;179431;1259;46041;-87
2023/12/26 17:09:49;;;;;;;3.10;1.70;;;;;;;9.17;91.64;99763.04;179479;1259;44051;-88
2023/12/26 17:13:52;;;;;;;4.60;1.20;;;;;;;9.19;92.14;99774.08;180051;1262;59881;-87
2023/12/26 17:17:56;;;;;;;2.60;1.10;;;;;;;9.13;90.75;99767.80;178441;1261;46003;-86
2023/12/26 17:22:00;;;;;;;1.70;1.30;;;;;;;9.14;90.69;99785.09;179615;1262;46116;-85
2023/12/26 17:26:03;;;;;;;1.50;1.00;;;;;;;9.08;90.22;99792.16;179712;1260;44660;-86
2023/12/26 17:30:09;;;;;;;2.20;1.40;;;;;;;9.03;91.57;99803.54;179226;1260;45961;-87
2023/12/26 17:34:14;;;;;;;1.80;1.30;;;;;;;8.96;91.74;99804.91;178940;1258;59643;-87
2023/12/26 17:38:17;;;;;;;2.20;1.30;;;;;;;8.88;91.81;99816.88;178546;1260;46063;-86
2023/12/26 17:42:20;;;;;;;8.30;1.90;;;;;;;8.78;92.31;99827.62;178448;1260;45976;-87
2023/12/26 17:46:24;;;;;;;4.80;2.20;;;;;;;8.68;92.69;99835.89;178296;1258;44147;-87
2023/12/26 17:50:27;;;;;;;3.60;2.50;;;;;;;8.58;93.23;99838.94;177970;1260;45994;-87
2023/12/26 17:54:34;;;;;;;5.30;3.00;;;;;;;8.48;93.34;99850.64;178185;1260;59613;-87
2023/12/26 17:58:37;;;;;;;;;;;;;;;8.39;93.62;99853.66;178285;1262;46023;-88
2023/12/26 18:02:41;;;;;;;5.60;2.00;;;;;;;8.33;92.42;99855.06;178508;1260;45896;-88
2023/12/26 18:06:45;;;;;;;3.80;3.00;;;;;;;8.31;92.35;99860.32;178058;1262;45741;-87
2023/12/26 18:10:50;;;;;;;2.50;1.40;;;;;;;8.27;91.57;99858.52;177782;1260;46204;-88
2023/12/26 18:14:54;;;;;;;3.30;1.60;;;;;;;8.26;91.46;99860.33;177816;1260;58543;-86
2023/12/26 18:18:57;;;;;;;3.00;0.80;;;;;;;8.29;90.50;99862.04;177755;1259;45891;-87
2023/12/26 18:23:01;;;;;;;7.10;1.90;;;;;;;8.33;89.84;99863.72;177937;1262;46094;-88
2023/12/26 18:27:06;;;;;;;4.10;1.10;;;;;;;8.34;89.47;99864.83;178058;1260;46085;-87
2023/12/26 18:31:10;;;;;;;3.10;1.70;;;;;;;8.36;88.42;99867.50;178139;1261;45990;-88
2023/12/26 18:35:14;;;;;;;4.10;1.40;;;;;;;8.38;87.77;99861.36;177649;1260;58230;-87
2023/12/26 18:39:19;;;;;;;3.40;1.10;;;;;;;8.41;88.06;99877.20;177801;1260;46099;-86
2023/12/26 18:43:23;;;;;;;4.50;1.50;;;;;;;8.40;89.04;99870.21;178374;1260;46034;-87
2023/12/26 18:47:27;;;;;;;5.50;1.80;;;;;;;8.40;89.72;99875.53;178412;1260;46034;-86
2023/12/26 18:51:31;;;;;;;3.50;2.00;;;;;;;8.34;90.36;99874.41;177956;1262;46120;-87
2023/12/26 18:55:38;;;;;;;2.70;1.50;;;;;;;8.33;90.94;99889.66;178187;1258;58355;-87
2023/12/26 18:59:41;;;;;;;3.40;1.70;;;;;;;8.26;91.46;99898.69;177979;1261;46568;-89
2023/12/26 19:03:46;;;;;;;3.00;1.40;;;;;;;8.21;91.63;99910.38;178542;1260;44172;-87
2023/12/26 19:07:50;;;;;;;4.70;1.40;;;;;;;8.21;91.42;99909.34;178226;1260;46078;-87
2023/12/26 19:11:54;;;;;;;2.30;1.90;;;;;;;8.19;90.73;99915.33;178179;1259;44425;-86
2023/12/26 19:15:58;;;;;;;3.70;2.20;;;;;;;8.17;90.34;99915.84;178272;1263;60233;-84
2023/12/26 19:20:04;;;;;;;2.90;1.90;;;;;;;8.17;90.09;99920.61;177947;1262;46021;-87
2023/12/26 19:24:07;;;;;;;8.50;1.60;;;;;;;8.14;90.33;99919.93;177783;1261;46103;-86
2023/12/26 19:28:12;;;;;;;3.30;1.30;;;;;;;8.14;89.13;99916.18;177926;1260;46111;-88
2023/12/26 19:32:16;;;;;;;1.90;1.50;;;;;;;8.19;89.58;99927.36;178096;1260;46190;-88